sensor_id;sensor_type;location;lat;lon;timestamp;P1;durP1;ratioP1;P2;durP2;ratioP2
45944;SDS011;31655;48.972;10.686;2023-03-23T00:01:12;5.97;;;2.13;;
45944;SDS011;31655;48.972;10.686;2023-03-23T00:03:40;4.47;;;2.40;;
45944;SDS011;31655;48.972;10.686;2023-03-23T00:06:06;5.65;;;2.38;;
45944;SDS011;31655;48.972;10.686;2023-03-23T00:08:34;6.13;;;2.35;;
45944;SDS011;31655;48.972;10.686;2023-03-23T00:11:10;3.05;;;2.40;;
45944;SDS011;31655;48.972;10.686;2023-03-23T00:13:40;3.85;;;2.10;;
45944;SDS011;31655;48.972;10.686;2023-03-23T00:16:06;4.25;;;2.30;;
45944;SDS011;31655;48.972;10.686;2023-03-23T00:21:17;2.53;;;2.07;;
45944;SDS011;31655;48.972;10.686;2023-03-23T00:23:43;5.22;;;2.35;;
45944;SDS011;31655;48.972;10.686;2023-03-23T00:26:09;5.78;;;2.65;;
45944;SDS011;31655;48.972;10.686;2023-03-23T00:28:36;5.05;;;2.25;;
45944;SDS011;31655;48.972;10.686;2023-03-23T00:31:04;3.13;;;2.25;;
45944;SDS011;31655;48.972;10.686;2023-03-23T00:33:32;4.35;;;1.90;;
45944;SDS011;31655;48.972;10.686;2023-03-23T00:36:03;3.03;;;1.70;;
45944;SDS011;31655;48.972;10.686;2023-03-23T00:38:30;5.70;;;2.10;;
45944;SDS011;31655;48.972;10.686;2023-03-23T00:40:56;3.70;;;2.15;;
45944;SDS011;31655;48.972;10.686;2023-03-23T00:43:22;3.97;;;2.35;;
45944;SDS011;31655;48.972;10.686;2023-03-23T00:45:50;3.13;;;2.15;;
45944;SDS011;31655;48.972;10.686;2023-03-23T00:48:19;5.65;;;2.00;;
45944;SDS011;31655;48.972;10.686;2023-03-23T00:50:46;5.00;;;2.30;;
45944;SDS011;31655;48.972;10.686;2023-03-23T00:53:12;5.95;;;2.30;;
45944;SDS011;31655;48.972;10.686;2023-03-23T00:55:39;3.00;;;2.08;;
45944;SDS011;31655;48.972;10.686;2023-03-23T00:58:09;3.67;;;2.15;;
45944;SDS011;31655;48.972;10.686;2023-03-23T01:00:36;3.30;;;2.20;;
45944;SDS011;31655;48.972;10.686;2023-03-23T01:03:02;4.38;;;1.90;;
45944;SDS011;31655;48.972;10.686;2023-03-23T01:05:29;3.05;;;1.98;;
45944;SDS011;31655;48.972;10.686;2023-03-23T01:07:59;4.80;;;2.10;;
45944;SDS011;31655;48.972;10.686;2023-03-23T01:10:26;3.05;;;2.17;;
45944;SDS011;31655;48.972;10.686;2023-03-23T01:12:52;3.13;;;2.38;;
45944;SDS011;31655;48.972;10.686;2023-03-23T01:15:18;3.22;;;2.22;;
45944;SDS011;31655;48.972;10.686;2023-03-23T01:17:45;2.88;;;1.45;;
45944;SDS011;31655;48.972;10.686;2023-03-23T01:20:11;3.22;;;1.80;;
45944;SDS011;31655;48.972;10.686;2023-03-23T01:22:39;3.13;;;2.05;;
45944;SDS011;31655;48.972;10.686;2023-03-23T01:25:06;5.45;;;2.58;;
45944;SDS011;31655;48.972;10.686;2023-03-23T01:27:32;3.30;;;2.10;;
45944;SDS011;31655;48.972;10.686;2023-03-23T01:29:58;3.75;;;1.90;;
45944;SDS011;31655;48.972;10.686;2023-03-23T01:32:24;6.40;;;2.50;;
45944;SDS011;31655;48.972;10.686;2023-03-23T01:34:50;3.70;;;2.28;;
45944;SDS011;31655;48.972;10.686;2023-03-23T01:37:15;6.07;;;2.70;;
45944;SDS011;31655;48.972;10.686;2023-03-23T01:39:41;2.80;;;2.38;;
45944;SDS011;31655;48.972;10.686;2023-03-23T01:42:10;4.07;;;2.30;;
45944;SDS011;31655;48.972;10.686;2023-03-23T01:47:02;6.57;;;1.90;;
45944;SDS011;31655;48.972;10.686;2023-03-23T01:49:29;3.53;;;1.92;;
45944;SDS011;31655;48.972;10.686;2023-03-23T01:52:00;3.05;;;1.80;;
45944;SDS011;31655;48.972;10.686;2023-03-23T01:54:33;4.63;;;2.35;;
45944;SDS011;31655;48.972;10.686;2023-03-23T01:59:28;2.28;;;1.90;;
45944;SDS011;31655;48.972;10.686;2023-03-23T02:01:55;3.80;;;2.15;;
45944;SDS011;31655;48.972;10.686;2023-03-23T02:04:21;2.38;;;1.45;;
45944;SDS011;31655;48.972;10.686;2023-03-23T02:06:48;4.47;;;1.90;;
45944;SDS011;31655;48.972;10.686;2023-03-23T02:09:15;3.97;;;1.92;;
45944;SDS011;31655;48.972;10.686;2023-03-23T02:11:42;6.05;;;1.92;;
45944;SDS011;31655;48.972;10.686;2023-03-23T02:14:08;2.95;;;1.92;;
45944;SDS011;31655;48.972;10.686;2023-03-23T02:16:42;7.97;;;2.28;;
45944;SDS011;31655;48.972;10.686;2023-03-23T02:22:30;4.20;;;1.67;;
45944;SDS011;31655;48.972;10.686;2023-03-23T02:28:08;5.53;;;2.05;;
45944;SDS011;31655;48.972;10.686;2023-03-23T02:33:46;2.95;;;1.42;;
45944;SDS011;31655;48.972;10.686;2023-03-23T02:41:45;3.10;;;2.40;;
45944;SDS011;31655;48.972;10.686;2023-03-23T02:44:21;3.97;;;2.05;;
45944;SDS011;31655;48.972;10.686;2023-03-23T02:46:49;2.33;;;1.50;;
45944;SDS011;31655;48.972;10.686;2023-03-23T02:49:17;2.75;;;1.60;;
45944;SDS011;31655;48.972;10.686;2023-03-23T02:51:44;3.00;;;2.28;;
45944;SDS011;31655;48.972;10.686;2023-03-23T02:54:12;3.67;;;2.22;;
45944;SDS011;31655;48.972;10.686;2023-03-23T02:56:40;2.70;;;1.55;;
45944;SDS011;31655;48.972;10.686;2023-03-23T02:59:06;4.38;;;1.85;;
45944;SDS011;31655;48.972;10.686;2023-03-23T03:03:59;2.97;;;1.80;;
45944;SDS011;31655;48.972;10.686;2023-03-23T03:09:44;25.90;;;12.40;;
45944;SDS011;31655;48.972;10.686;2023-03-23T03:11:51;13.00;;;8.25;;
45944;SDS011;31655;48.972;10.686;2023-03-23T03:14:33;5.00;;;3.25;;
45944;SDS011;31655;48.972;10.686;2023-03-23T03:17:17;5.93;;;4.32;;
45944;SDS011;31655;48.972;10.686;2023-03-23T03:19:48;5.68;;;3.63;;
45944;SDS011;31655;48.972;10.686;2023-03-23T03:22:19;3.50;;;2.47;;
45944;SDS011;31655;48.972;10.686;2023-03-23T03:24:46;12.45;;;9.63;;
45944;SDS011;31655;48.972;10.686;2023-03-23T03:27:14;19.63;;;13.23;;
45944;SDS011;31655;48.972;10.686;2023-03-23T03:29:44;30.80;;;12.15;;
45944;SDS011;31655;48.972;10.686;2023-03-23T03:32:16;54.72;;;21.70;;
45944;SDS011;31655;48.972;10.686;2023-03-23T03:34:49;26.15;;;10.48;;
45944;SDS011;31655;48.972;10.686;2023-03-23T03:37:15;5.75;;;3.15;;
45944;SDS011;31655;48.972;10.686;2023-03-23T03:39:43;25.98;;;12.85;;
45944;SDS011;31655;48.972;10.686;2023-03-23T03:42:09;20.20;;;10.85;;
45944;SDS011;31655;48.972;10.686;2023-03-23T03:44:35;39.70;;;22.38;;
45944;SDS011;31655;48.972;10.686;2023-03-23T03:47:01;12.60;;;7.97;;
45944;SDS011;31655;48.972;10.686;2023-03-23T03:49:27;9.23;;;4.80;;
45944;SDS011;31655;48.972;10.686;2023-03-23T03:51:53;4.43;;;3.03;;
45944;SDS011;31655;48.972;10.686;2023-03-23T03:54:18;6.22;;;3.70;;
45944;SDS011;31655;48.972;10.686;2023-03-23T03:56:44;6.28;;;3.08;;
45944;SDS011;31655;48.972;10.686;2023-03-23T03:59:10;8.52;;;3.53;;
45944;SDS011;31655;48.972;10.686;2023-03-23T04:01:38;7.05;;;3.85;;
45944;SDS011;31655;48.972;10.686;2023-03-23T04:04:04;4.97;;;3.65;;
45944;SDS011;31655;48.972;10.686;2023-03-23T04:06:32;4.90;;;3.67;;
45944;SDS011;31655;48.972;10.686;2023-03-23T04:09:01;5.28;;;3.38;;
45944;SDS011;31655;48.972;10.686;2023-03-23T04:11:30;9.52;;;4.45;;
45944;SDS011;31655;48.972;10.686;2023-03-23T04:13:57;6.32;;;3.80;;
45944;SDS011;31655;48.972;10.686;2023-03-23T04:16:22;11.25;;;4.63;;
45944;SDS011;31655;48.972;10.686;2023-03-23T04:18:48;11.05;;;5.00;;
45944;SDS011;31655;48.972;10.686;2023-03-23T04:21:16;5.82;;;3.67;;
45944;SDS011;31655;48.972;10.686;2023-03-23T04:23:42;5.78;;;3.63;;
45944;SDS011;31655;48.972;10.686;2023-03-23T04:26:07;5.15;;;4.47;;
45944;SDS011;31655;48.972;10.686;2023-03-23T04:28:33;5.97;;;4.32;;
45944;SDS011;31655;48.972;10.686;2023-03-23T04:31:00;6.57;;;3.97;;
45944;SDS011;31655;48.972;10.686;2023-03-23T04:33:26;5.70;;;4.32;;
45944;SDS011;31655;48.972;10.686;2023-03-23T04:35:55;7.45;;;3.67;;
45944;SDS011;31655;48.972;10.686;2023-03-23T04:38:25;4.53;;;3.35;;
45944;SDS011;31655;48.972;10.686;2023-03-23T04:40:52;4.53;;;3.17;;
45944;SDS011;31655;48.972;10.686;2023-03-23T04:43:22;7.82;;;3.65;;
45944;SDS011;31655;48.972;10.686;2023-03-23T04:45:53;5.95;;;3.47;;
45944;SDS011;31655;48.972;10.686;2023-03-23T04:48:26;5.82;;;3.55;;
45944;SDS011;31655;48.972;10.686;2023-03-23T04:50:54;8.23;;;3.60;;
45944;SDS011;31655;48.972;10.686;2023-03-23T04:53:21;4.10;;;3.47;;
45944;SDS011;31655;48.972;10.686;2023-03-23T04:55:47;4.53;;;3.50;;
45944;SDS011;31655;48.972;10.686;2023-03-23T04:58:14;6.95;;;3.72;;
45944;SDS011;31655;48.972;10.686;2023-03-23T05:00:40;5.78;;;3.80;;
45944;SDS011;31655;48.972;10.686;2023-03-23T05:03:08;11.65;;;4.03;;
45944;SDS011;31655;48.972;10.686;2023-03-23T05:05:35;6.50;;;4.40;;
45944;SDS011;31655;48.972;10.686;2023-03-23T05:08:01;7.32;;;4.28;;
45944;SDS011;31655;48.972;10.686;2023-03-23T05:10:27;7.05;;;4.15;;
45944;SDS011;31655;48.972;10.686;2023-03-23T05:12:53;6.97;;;4.35;;
45944;SDS011;31655;48.972;10.686;2023-03-23T05:15:19;6.32;;;3.97;;
45944;SDS011;31655;48.972;10.686;2023-03-23T05:17:45;8.25;;;3.95;;
45944;SDS011;31655;48.972;10.686;2023-03-23T05:20:14;7.95;;;4.55;;
45944;SDS011;31655;48.972;10.686;2023-03-23T05:22:43;8.07;;;4.82;;
45944;SDS011;31655;48.972;10.686;2023-03-23T05:25:15;6.25;;;3.88;;
45944;SDS011;31655;48.972;10.686;2023-03-23T05:27:45;7.65;;;4.07;;
45944;SDS011;31655;48.972;10.686;2023-03-23T05:30:17;6.95;;;4.40;;
45944;SDS011;31655;48.972;10.686;2023-03-23T05:32:43;8.70;;;4.30;;
45944;SDS011;31655;48.972;10.686;2023-03-23T05:35:10;7.32;;;4.90;;
45944;SDS011;31655;48.972;10.686;2023-03-23T05:37:36;8.38;;;4.25;;
45944;SDS011;31655;48.972;10.686;2023-03-23T05:40:04;11.18;;;4.95;;
45944;SDS011;31655;48.972;10.686;2023-03-23T05:42:31;6.07;;;4.55;;
45944;SDS011;31655;48.972;10.686;2023-03-23T05:44:59;9.63;;;5.40;;
45944;SDS011;31655;48.972;10.686;2023-03-23T05:47:25;7.20;;;4.55;;
45944;SDS011;31655;48.972;10.686;2023-03-23T05:49:51;8.60;;;5.10;;
45944;SDS011;31655;48.972;10.686;2023-03-23T05:52:18;11.43;;;5.00;;
45944;SDS011;31655;48.972;10.686;2023-03-23T05:54:45;9.18;;;4.88;;
45944;SDS011;31655;48.972;10.686;2023-03-23T05:57:11;8.13;;;4.88;;
45944;SDS011;31655;48.972;10.686;2023-03-23T05:59:37;8.20;;;5.03;;
45944;SDS011;31655;48.972;10.686;2023-03-23T06:02:03;6.13;;;4.25;;
45944;SDS011;31655;48.972;10.686;2023-03-23T06:04:30;7.75;;;4.88;;
45944;SDS011;31655;48.972;10.686;2023-03-23T06:06:59;8.40;;;4.80;;
45944;SDS011;31655;48.972;10.686;2023-03-23T06:09:26;10.00;;;5.15;;
45944;SDS011;31655;48.972;10.686;2023-03-23T06:11:51;7.05;;;4.90;;
45944;SDS011;31655;48.972;10.686;2023-03-23T06:14:17;8.68;;;4.65;;
45944;SDS011;31655;48.972;10.686;2023-03-23T06:16:43;8.40;;;4.38;;
45944;SDS011;31655;48.972;10.686;2023-03-23T06:19:09;10.23;;;4.30;;
45944;SDS011;31655;48.972;10.686;2023-03-23T06:21:36;13.38;;;5.18;;
45944;SDS011;31655;48.972;10.686;2023-03-23T06:24:02;9.40;;;5.35;;
45944;SDS011;31655;48.972;10.686;2023-03-23T06:26:35;9.77;;;5.10;;
45944;SDS011;31655;48.972;10.686;2023-03-23T06:29:03;9.88;;;4.75;;
45944;SDS011;31655;48.972;10.686;2023-03-23T06:31:37;9.07;;;4.78;;
45944;SDS011;31655;48.972;10.686;2023-03-23T06:34:08;5.53;;;3.95;;
45944;SDS011;31655;48.972;10.686;2023-03-23T06:36:35;9.50;;;4.82;;
45944;SDS011;31655;48.972;10.686;2023-03-23T06:39:01;10.50;;;4.53;;
45944;SDS011;31655;48.972;10.686;2023-03-23T06:41:29;8.60;;;4.13;;
45944;SDS011;31655;48.972;10.686;2023-03-23T06:43:55;10.20;;;4.45;;
45944;SDS011;31655;48.972;10.686;2023-03-23T06:46:20;10.23;;;4.80;;
45944;SDS011;31655;48.972;10.686;2023-03-23T06:48:46;11.02;;;4.35;;
45944;SDS011;31655;48.972;10.686;2023-03-23T06:51:14;7.40;;;4.07;;
45944;SDS011;31655;48.972;10.686;2023-03-23T06:53:40;6.13;;;4.13;;
45944;SDS011;31655;48.972;10.686;2023-03-23T06:56:07;7.45;;;4.80;;
45944;SDS011;31655;48.972;10.686;2023-03-23T06:58:32;6.95;;;4.45;;
45944;SDS011;31655;48.972;10.686;2023-03-23T07:00:58;7.20;;;4.05;;
45944;SDS011;31655;48.972;10.686;2023-03-23T07:03:26;11.23;;;5.00;;
45944;SDS011;31655;48.972;10.686;2023-03-23T07:05:52;8.02;;;4.68;;
45944;SDS011;31655;48.972;10.686;2023-03-23T07:08:19;7.47;;;4.05;;
45944;SDS011;31655;48.972;10.686;2023-03-23T07:10:46;9.77;;;4.85;;
45944;SDS011;31655;48.972;10.686;2023-03-23T07:13:12;7.38;;;4.68;;
45944;SDS011;31655;48.972;10.686;2023-03-23T07:15:39;6.40;;;3.97;;
45944;SDS011;31655;48.972;10.686;2023-03-23T07:18:05;7.60;;;4.28;;
45944;SDS011;31655;48.972;10.686;2023-03-23T07:20:30;7.18;;;4.13;;
45944;SDS011;31655;48.972;10.686;2023-03-23T07:22:57;5.38;;;3.42;;
45944;SDS011;31655;48.972;10.686;2023-03-23T07:25:22;6.10;;;3.60;;
45944;SDS011;31655;48.972;10.686;2023-03-23T07:27:48;7.07;;;4.43;;
45944;SDS011;31655;48.972;10.686;2023-03-23T07:30:14;6.90;;;3.83;;
45944;SDS011;31655;48.972;10.686;2023-03-23T07:32:40;5.18;;;3.95;;
45944;SDS011;31655;48.972;10.686;2023-03-23T07:35:07;6.03;;;3.63;;
45944;SDS011;31655;48.972;10.686;2023-03-23T07:37:34;5.90;;;4.20;;
45944;SDS011;31655;48.972;10.686;2023-03-23T07:40:00;6.57;;;4.28;;
45944;SDS011;31655;48.972;10.686;2023-03-23T07:42:39;11.40;;;3.92;;
45944;SDS011;31655;48.972;10.686;2023-03-23T07:45:05;5.55;;;3.58;;
45944;SDS011;31655;48.972;10.686;2023-03-23T07:47:31;5.70;;;3.42;;
45944;SDS011;31655;48.972;10.686;2023-03-23T07:49:57;6.28;;;3.50;;
45944;SDS011;31655;48.972;10.686;2023-03-23T07:52:23;5.32;;;3.92;;
45944;SDS011;31655;48.972;10.686;2023-03-23T07:54:49;5.70;;;3.55;;
45944;SDS011;31655;48.972;10.686;2023-03-23T07:57:15;9.63;;;3.70;;
45944;SDS011;31655;48.972;10.686;2023-03-23T07:59:41;7.82;;;3.78;;
45944;SDS011;31655;48.972;10.686;2023-03-23T08:02:07;6.32;;;4.10;;
45944;SDS011;31655;48.972;10.686;2023-03-23T08:04:34;6.80;;;3.70;;
45944;SDS011;31655;48.972;10.686;2023-03-23T08:07:02;5.05;;;3.80;;
45944;SDS011;31655;48.972;10.686;2023-03-23T08:09:29;5.10;;;3.75;;
45944;SDS011;31655;48.972;10.686;2023-03-23T08:11:55;4.80;;;3.47;;
45944;SDS011;31655;48.972;10.686;2023-03-23T08:14:21;4.50;;;3.00;;
45944;SDS011;31655;48.972;10.686;2023-03-23T08:16:48;6.97;;;3.88;;
45944;SDS011;31655;48.972;10.686;2023-03-23T08:19:13;3.80;;;3.20;;
45944;SDS011;31655;48.972;10.686;2023-03-23T08:21:39;6.80;;;3.00;;
45944;SDS011;31655;48.972;10.686;2023-03-23T08:24:05;7.25;;;3.40;;
45944;SDS011;31655;48.972;10.686;2023-03-23T08:26:31;7.90;;;3.50;;
45944;SDS011;31655;48.972;10.686;2023-03-23T08:28:59;5.85;;;3.30;;
45944;SDS011;31655;48.972;10.686;2023-03-23T08:31:25;8.18;;;3.65;;
45944;SDS011;31655;48.972;10.686;2023-03-23T08:33:52;6.05;;;3.25;;
45944;SDS011;31655;48.972;10.686;2023-03-23T08:36:18;6.63;;;2.97;;
45944;SDS011;31655;48.972;10.686;2023-03-23T08:38:43;5.80;;;3.38;;
45944;SDS011;31655;48.972;10.686;2023-03-23T08:41:10;6.05;;;3.88;;
45944;SDS011;31655;48.972;10.686;2023-03-23T08:43:36;3.60;;;2.92;;
45944;SDS011;31655;48.972;10.686;2023-03-23T08:46:03;6.88;;;3.40;;
45944;SDS011;31655;48.972;10.686;2023-03-23T08:48:33;5.10;;;3.15;;
45944;SDS011;31655;48.972;10.686;2023-03-23T08:51:00;6.07;;;3.45;;
45944;SDS011;31655;48.972;10.686;2023-03-23T08:53:26;8.20;;;3.50;;
45944;SDS011;31655;48.972;10.686;2023-03-23T08:55:55;4.28;;;3.00;;
45944;SDS011;31655;48.972;10.686;2023-03-23T08:58:21;9.00;;;3.05;;
45944;SDS011;31655;48.972;10.686;2023-03-23T09:00:47;3.75;;;2.75;;
45944;SDS011;31655;48.972;10.686;2023-03-23T09:03:13;4.80;;;3.22;;
45944;SDS011;31655;48.972;10.686;2023-03-23T09:05:42;5.32;;;2.92;;
45944;SDS011;31655;48.972;10.686;2023-03-23T09:08:11;5.38;;;2.90;;
45944;SDS011;31655;48.972;10.686;2023-03-23T09:10:38;6.15;;;3.75;;
45944;SDS011;31655;48.972;10.686;2023-03-23T09:13:04;5.97;;;2.95;;
45944;SDS011;31655;48.972;10.686;2023-03-23T09:15:31;7.88;;;3.28;;
45944;SDS011;31655;48.972;10.686;2023-03-23T09:17:57;5.72;;;3.47;;
45944;SDS011;31655;48.972;10.686;2023-03-23T09:20:24;6.32;;;2.95;;
45944;SDS011;31655;48.972;10.686;2023-03-23T09:22:53;3.90;;;2.97;;
45944;SDS011;31655;48.972;10.686;2023-03-23T09:25:21;4.13;;;3.15;;
45944;SDS011;31655;48.972;10.686;2023-03-23T09:27:50;7.05;;;3.05;;
45944;SDS011;31655;48.972;10.686;2023-03-23T09:30:18;4.60;;;3.40;;
45944;SDS011;31655;48.972;10.686;2023-03-23T09:32:46;3.67;;;2.95;;
45944;SDS011;31655;48.972;10.686;2023-03-23T09:35:14;5.15;;;3.00;;
45944;SDS011;31655;48.972;10.686;2023-03-23T09:37:41;5.95;;;2.80;;
45944;SDS011;31655;48.972;10.686;2023-03-23T09:40:15;9.48;;;3.10;;
45944;SDS011;31655;48.972;10.686;2023-03-23T09:54:14;8.48;;;3.30;;
45944;SDS011;31655;48.972;10.686;2023-03-23T09:59:17;6.63;;;3.40;;
45944;SDS011;31655;48.972;10.686;2023-03-23T10:01:49;7.18;;;2.95;;
45944;SDS011;31655;48.972;10.686;2023-03-23T10:05:03;5.15;;;2.90;;
45944;SDS011;31655;48.972;10.686;2023-03-23T10:07:13;6.53;;;2.75;;
45944;SDS011;31655;48.972;10.686;2023-03-23T10:09:41;8.32;;;3.63;;
45944;SDS011;31655;48.972;10.686;2023-03-23T10:19:42;7.10;;;3.15;;
45944;SDS011;31655;48.972;10.686;2023-03-23T10:22:32;8.43;;;4.00;;
45944;SDS011;31655;48.972;10.686;2023-03-23T10:30:55;3.75;;;2.30;;
45944;SDS011;31655;48.972;10.686;2023-03-23T10:33:25;3.53;;;2.50;;
45944;SDS011;31655;48.972;10.686;2023-03-23T10:41:14;5.47;;;1.60;;
45944;SDS011;31655;48.972;10.686;2023-03-23T10:43:41;3.47;;;1.85;;
45944;SDS011;31655;48.972;10.686;2023-03-23T10:49:06;3.25;;;1.92;;
45944;SDS011;31655;48.972;10.686;2023-03-23T10:51:37;4.43;;;1.70;;
45944;SDS011;31655;48.972;10.686;2023-03-23T10:54:07;2.63;;;1.88;;
45944;SDS011;31655;48.972;10.686;2023-03-23T10:56:38;2.88;;;1.75;;
45944;SDS011;31655;48.972;10.686;2023-03-23T10:59:29;4.13;;;1.95;;
45944;SDS011;31655;48.972;10.686;2023-03-23T11:01:58;6.25;;;2.30;;
45944;SDS011;31655;48.972;10.686;2023-03-23T11:04:28;2.85;;;1.63;;
45944;SDS011;31655;48.972;10.686;2023-03-23T11:06:59;3.03;;;1.48;;
45944;SDS011;31655;48.972;10.686;2023-03-23T11:09:37;2.00;;;1.70;;
45944;SDS011;31655;48.972;10.686;2023-03-23T11:12:15;3.30;;;1.48;;
45944;SDS011;31655;48.972;10.686;2023-03-23T11:14:42;1.63;;;1.40;;
45944;SDS011;31655;48.972;10.686;2023-03-23T11:17:25;3.38;;;1.77;;
45944;SDS011;31655;48.972;10.686;2023-03-23T11:19:52;3.47;;;2.00;;
45944;SDS011;31655;48.972;10.686;2023-03-23T11:22:25;2.03;;;1.85;;
45944;SDS011;31655;48.972;10.686;2023-03-23T11:24:58;2.58;;;1.63;;
45944;SDS011;31655;48.972;10.686;2023-03-23T11:27:26;3.67;;;2.13;;
45944;SDS011;31655;48.972;10.686;2023-03-23T11:29:53;6.72;;;2.00;;
45944;SDS011;31655;48.972;10.686;2023-03-23T11:32:23;2.53;;;2.05;;
45944;SDS011;31655;48.972;10.686;2023-03-23T11:34:54;3.03;;;1.73;;
45944;SDS011;31655;48.972;10.686;2023-03-23T11:37:37;4.18;;;1.85;;
45944;SDS011;31655;48.972;10.686;2023-03-23T11:45:20;1.73;;;1.50;;
45944;SDS011;31655;48.972;10.686;2023-03-23T11:48:03;2.95;;;1.50;;
45944;SDS011;31655;48.972;10.686;2023-03-23T11:56:10;2.97;;;1.50;;
45944;SDS011;31655;48.972;10.686;2023-03-23T11:58:44;4.63;;;1.83;;
45944;SDS011;31655;48.972;10.686;2023-03-23T12:01:21;2.03;;;1.20;;
45944;SDS011;31655;48.972;10.686;2023-03-23T12:09:48;2.05;;;1.60;;
45944;SDS011;31655;48.972;10.686;2023-03-23T12:15:56;4.60;;;2.10;;
45944;SDS011;31655;48.972;10.686;2023-03-23T12:24:28;2.83;;;1.88;;
45944;SDS011;31655;48.972;10.686;2023-03-23T12:35:14;3.60;;;1.85;;
45944;SDS011;31655;48.972;10.686;2023-03-23T12:48:59;2.53;;;1.75;;
45944;SDS011;31655;48.972;10.686;2023-03-23T12:56:41;2.40;;;1.88;;
45944;SDS011;31655;48.972;10.686;2023-03-23T12:59:19;3.70;;;1.70;;
45944;SDS011;31655;48.972;10.686;2023-03-23T13:01:59;1.90;;;1.67;;
45944;SDS011;31655;48.972;10.686;2023-03-23T13:07:43;1.42;;;1.17;;
45944;SDS011;31655;48.972;10.686;2023-03-23T13:10:15;2.28;;;1.30;;
45944;SDS011;31655;48.972;10.686;2023-03-23T13:12:51;1.77;;;1.63;;
45944;SDS011;31655;48.972;10.686;2023-03-23T13:15:30;4.32;;;1.50;;
45944;SDS011;31655;48.972;10.686;2023-03-23T13:23:42;2.83;;;1.55;;
45944;SDS011;31655;48.972;10.686;2023-03-23T13:26:13;3.95;;;1.60;;
45944;SDS011;31655;48.972;10.686;2023-03-23T13:31:37;2.95;;;1.65;;
45944;SDS011;31655;48.972;10.686;2023-03-23T13:39:31;2.67;;;1.63;;
45944;SDS011;31655;48.972;10.686;2023-03-23T13:42:01;3.22;;;1.75;;
45944;SDS011;31655;48.972;10.686;2023-03-23T13:44:41;3.15;;;2.10;;
45944;SDS011;31655;48.972;10.686;2023-03-23T13:49:55;2.88;;;2.10;;
45944;SDS011;31655;48.972;10.686;2023-03-23T13:54:51;5.03;;;2.03;;
45944;SDS011;31655;48.972;10.686;2023-03-23T13:57:35;7.57;;;2.25;;
45944;SDS011;31655;48.972;10.686;2023-03-23T14:00:25;5.28;;;2.05;;
45944;SDS011;31655;48.972;10.686;2023-03-23T14:05:42;1.83;;;1.50;;
45944;SDS011;31655;48.972;10.686;2023-03-23T14:08:20;6.70;;;2.03;;
45944;SDS011;31655;48.972;10.686;2023-03-23T14:13:20;4.85;;;2.10;;
45944;SDS011;31655;48.972;10.686;2023-03-23T14:16:05;4.93;;;1.90;;
45944;SDS011;31655;48.972;10.686;2023-03-23T14:21:22;3.28;;;2.03;;
45944;SDS011;31655;48.972;10.686;2023-03-23T14:23:59;3.58;;;2.30;;
45944;SDS011;31655;48.972;10.686;2023-03-23T14:26:48;5.22;;;2.60;;
45944;SDS011;31655;48.972;10.686;2023-03-23T14:29:17;3.42;;;2.58;;
45944;SDS011;31655;48.972;10.686;2023-03-23T14:31:43;2.45;;;2.13;;
45944;SDS011;31655;48.972;10.686;2023-03-23T14:34:18;4.45;;;2.40;;
45944;SDS011;31655;48.972;10.686;2023-03-23T14:36:45;4.03;;;2.22;;
45944;SDS011;31655;48.972;10.686;2023-03-23T14:41:36;2.75;;;2.13;;
45944;SDS011;31655;48.972;10.686;2023-03-23T14:44:05;10.70;;;2.92;;
45944;SDS011;31655;48.972;10.686;2023-03-23T14:46:34;7.28;;;2.42;;
45944;SDS011;31655;48.972;10.686;2023-03-23T14:49:04;3.85;;;2.30;;
45944;SDS011;31655;48.972;10.686;2023-03-23T14:51:30;4.15;;;2.40;;
45944;SDS011;31655;48.972;10.686;2023-03-23T14:53:57;3.75;;;2.28;;
45944;SDS011;31655;48.972;10.686;2023-03-23T14:56:31;3.50;;;1.95;;
45944;SDS011;31655;48.972;10.686;2023-03-23T14:59:04;4.47;;;2.10;;
45944;SDS011;31655;48.972;10.686;2023-03-23T15:01:31;5.82;;;1.92;;
45944;SDS011;31655;48.972;10.686;2023-03-23T15:04:04;4.65;;;2.30;;
45944;SDS011;31655;48.972;10.686;2023-03-23T15:06:35;2.58;;;2.30;;
45944;SDS011;31655;48.972;10.686;2023-03-23T15:09:11;5.00;;;2.45;;
45944;SDS011;31655;48.972;10.686;2023-03-23T15:11:43;5.07;;;2.50;;
45944;SDS011;31655;48.972;10.686;2023-03-23T15:16:49;4.43;;;1.90;;
45944;SDS011;31655;48.972;10.686;2023-03-23T15:19:28;7.05;;;2.33;;
45944;SDS011;31655;48.972;10.686;2023-03-23T15:22:18;3.95;;;1.88;;
45944;SDS011;31655;48.972;10.686;2023-03-23T15:24:46;2.72;;;2.03;;
45944;SDS011;31655;48.972;10.686;2023-03-23T15:27:23;4.78;;;1.95;;
45944;SDS011;31655;48.972;10.686;2023-03-23T15:29:54;4.05;;;2.05;;
45944;SDS011;31655;48.972;10.686;2023-03-23T15:32:30;3.83;;;2.20;;
45944;SDS011;31655;48.972;10.686;2023-03-23T15:35:04;3.00;;;2.40;;
45944;SDS011;31655;48.972;10.686;2023-03-23T15:37:41;3.53;;;2.22;;
45944;SDS011;31655;48.972;10.686;2023-03-23T15:40:16;4.50;;;2.45;;
45944;SDS011;31655;48.972;10.686;2023-03-23T15:42:44;2.55;;;2.05;;
45944;SDS011;31655;48.972;10.686;2023-03-23T15:45:16;2.58;;;1.77;;
45944;SDS011;31655;48.972;10.686;2023-03-23T15:47:49;3.05;;;2.30;;
45944;SDS011;31655;48.972;10.686;2023-03-23T15:52:53;4.68;;;2.47;;
45944;SDS011;31655;48.972;10.686;2023-03-23T15:58:10;3.42;;;2.15;;
45944;SDS011;31655;48.972;10.686;2023-03-23T16:00:37;3.47;;;2.30;;
45944;SDS011;31655;48.972;10.686;2023-03-23T16:03:05;4.00;;;2.20;;
45944;SDS011;31655;48.972;10.686;2023-03-23T16:05:35;2.55;;;2.08;;
45944;SDS011;31655;48.972;10.686;2023-03-23T16:08:01;3.92;;;2.50;;
45944;SDS011;31655;48.972;10.686;2023-03-23T16:10:28;3.03;;;2.20;;
45944;SDS011;31655;48.972;10.686;2023-03-23T16:12:54;4.43;;;2.80;;
45944;SDS011;31655;48.972;10.686;2023-03-23T16:15:20;3.10;;;2.67;;
45944;SDS011;31655;48.972;10.686;2023-03-23T16:17:46;6.32;;;4.07;;
45944;SDS011;31655;48.972;10.686;2023-03-23T16:20:16;4.95;;;3.42;;
45944;SDS011;31655;48.972;10.686;2023-03-23T16:22:47;6.63;;;3.13;;
45944;SDS011;31655;48.972;10.686;2023-03-23T16:25:13;3.33;;;2.58;;
45944;SDS011;31655;48.972;10.686;2023-03-23T16:27:41;6.53;;;2.92;;
45944;SDS011;31655;48.972;10.686;2023-03-23T16:32:38;12.13;;;3.58;;
45944;SDS011;31655;48.972;10.686;2023-03-23T16:35:04;7.32;;;3.97;;
45944;SDS011;31655;48.972;10.686;2023-03-23T16:37:30;3.88;;;3.10;;
45944;SDS011;31655;48.972;10.686;2023-03-23T16:39:58;5.85;;;3.38;;
45944;SDS011;31655;48.972;10.686;2023-03-23T16:42:23;7.78;;;3.53;;
45944;SDS011;31655;48.972;10.686;2023-03-23T16:44:49;3.45;;;2.50;;
45944;SDS011;31655;48.972;10.686;2023-03-23T16:47:16;4.53;;;2.45;;
45944;SDS011;31655;48.972;10.686;2023-03-23T16:49:43;6.20;;;2.80;;
45944;SDS011;31655;48.972;10.686;2023-03-23T16:52:09;5.05;;;2.63;;
45944;SDS011;31655;48.972;10.686;2023-03-23T16:54:35;6.65;;;2.35;;
45944;SDS011;31655;48.972;10.686;2023-03-23T16:57:01;5.30;;;2.42;;
45944;SDS011;31655;48.972;10.686;2023-03-23T16:59:27;5.00;;;2.30;;
45944;SDS011;31655;48.972;10.686;2023-03-23T17:01:53;7.35;;;3.30;;
45944;SDS011;31655;48.972;10.686;2023-03-23T17:04:18;7.13;;;2.90;;
45944;SDS011;31655;48.972;10.686;2023-03-23T17:06:44;4.53;;;2.58;;
45944;SDS011;31655;48.972;10.686;2023-03-23T17:09:11;3.28;;;2.42;;
45944;SDS011;31655;48.972;10.686;2023-03-23T17:11:37;7.03;;;2.35;;
45944;SDS011;31655;48.972;10.686;2023-03-23T17:14:03;4.88;;;2.72;;
45944;SDS011;31655;48.972;10.686;2023-03-23T17:16:29;5.05;;;2.60;;
45944;SDS011;31655;48.972;10.686;2023-03-23T17:18:54;5.03;;;2.47;;
45944;SDS011;31655;48.972;10.686;2023-03-23T17:21:20;4.25;;;2.63;;